Chariton, IA (50049)

8:31 AM CDT on July 30, 2014 (GMT -0500)
Chariton Municipal (KCNC) Elev 1050 ft | 41.02 °N, 93.36 °W | Change Station

Current weather conditions updated 16 minutes ago

Clear
Clear
63 °F
Feels Like 63 °F
N
5
Wind Variable Wind from NW

Today is forecast to be Warmer than yesterday.

Today
High -- | Low -- °F
--% Chance of Precip.
Yesterday
High -- | Low -- °F
Precip. -- in
6:07 AM 8:31 PM
Waxing Crescent, 11% visible
Pressure 30.12 in
Visibility 10.0 miles
Clouds Clear
Dew Point 59 °F
Humidity 88%
Rainfall 0.00 in
Snow Depth Not available.
UV 2 out of 12
Pollen 7.10 out of 12
Air Quality Not available.
Flu Activity Not available.
METAR KCNC 301315Z AUTO 32004KT 10SM CLR 17/15 A3012 RMK AO2

More Conditions Fewer Conditions

Pressure 30.12 in
Visibility 10.0 miles
Clouds Clear
Dew Point 59 °F
Humidity 88%
Rainfall 0.00 in
Snow Depth Not available.
UV 2 out of 12
Pollen 7.10 out of 12
Air Quality Not available.
Flu Activity Not available.
METAR KCNC 301315Z AUTO 32004KT 10SM CLR 17/15 A3012 RMK AO2

More Conditions Fewer Conditions

10-Day Weather Forecast

Almanac

Astronomy

Jul. 30, 2014 Rise Set
Actual Time 6:07 AM CDT 8:31 PM CDT
Civil Twilight 5:36 AM CDT 9:02 PM CDT
Nautical Twilight 4:57 AM CDT 9:40 PM CDT
Astronomical Twilight 4:14 AM CDT 10:23 PM CDT
Moon 9:41 AM CDT 10:11 PM CDT
Length of Visible Light 15h 26m
Length of Day
14h 24m
Tomorrow will be 2m 1s shorter.
Waxing Crescent, 11% of the Moon is Illuminated
Today
Waxing Crescent
Aug 3
First Quarter
Aug 10
Full
Aug 17
Last Quarter
Aug 25
New

Today's Extremes

State Highs State Lows

Community

WunderPhotos

Upload Photos

1,739,079 photos uploaded!

Nearby

Snow Depth

Station Depth Elevation
No new snow has been reported.

Earthquake Activity

City Distance Mag. Time & Date
No recent earthquake activity has been reported nearby.
Minimum magnitude displayed is 2.5.

Coastal Water Temperatures

Place Temperature
No Stations Reporting

Nearby Weather Stations

Station Location Temp. Heat Index Dew Point Humidity Wind Precip. Elev Updated Type
MesoWest CHARIT , Chariton, IA 59 °F - - - North  at  - 0.00 in / hr 1018 ft 6:45 AM CDT MADIS
farm, Chariton, IA 64.5 °F - 59 °F 84% NW  at  0.0 mph 0.00 in / hr 971 ft 8:30 AM CDT Rapid Fire
MesoWest MELCHR , Dallas, IA 58 °F - - - North  at  - 0.00 in / hr 955 ft 5:15 AM CDT MADIS
Corydon IA, Corydon, IA 70.2 °F 75 °F 59 °F 67% NNW  at  3.1 mph 0.00 in / hr 1089 ft 8:29 AM CDT Normal
MesoWest CORYDN , Corydon, IA 61 °F - - - North  at  - 0.00 in / hr 1087 ft 6:15 AM CDT MADIS
House in Medora, New Virginia, IA 63.7 °F - 56 °F 76% NW  at  2.0 mph 0.00 in / hr 1033 ft 8:30 AM CDT Rapid Fire

Show More Stations Show Fewer Stations